createdAt,value
2023-03-28T00:04:43.487Z,2.55
2023-03-28T00:09:44.982Z,2.13
2023-03-28T00:14:46.500Z,2.55
2023-03-28T00:19:48.013Z,1.60
2023-03-28T00:24:49.740Z,1.88
2023-03-28T00:29:51.548Z,3.55
2023-03-28T00:34:53.190Z,2.38
2023-03-28T00:39:54.704Z,3.05
2023-03-28T00:44:58.005Z,3.22
2023-03-28T00:50:09.023Z,2.65
2023-03-28T00:55:17.272Z,2.80
2023-03-28T01:00:19.342Z,2.85
2023-03-28T01:05:26.828Z,3.22
2023-03-28T01:10:31.221Z,2.80
2023-03-28T01:15:33.808Z,2.45
2023-03-28T01:20:55.858Z,2.30
2023-03-28T01:26:36.053Z,2.67
2023-03-28T01:31:54.172Z,2.30
2023-03-28T01:37:57.480Z,3.45
2023-03-28T01:43:12.650Z,2.42
2023-03-28T01:49:15.377Z,2.50
2023-03-28T01:54:25.614Z,2.42
2023-03-28T01:59:37.531Z,2.92
2023-03-28T02:05:00.138Z,3.30
2023-03-28T02:10:04.697Z,2.50
2023-03-28T02:15:32.508Z,3.03
2023-03-28T02:21:08.761Z,2.97
2023-03-28T02:26:28.914Z,3.20
2023-03-28T02:31:53.247Z,3.67
2023-03-28T02:37:10.327Z,3.72
2023-03-28T02:42:33.265Z,3.13
2023-03-28T02:48:00.918Z,3.58
2023-03-28T02:53:14.395Z,3.50
2023-03-28T02:58:30.677Z,3.47
2023-03-28T03:03:36.651Z,3.67
2023-03-28T03:08:38.290Z,3.10
2023-03-28T03:13:40.400Z,3.60
2023-03-28T03:18:42.037Z,3.65
2023-03-28T03:23:43.578Z,3.97
2023-03-28T03:28:45.631Z,4.35
2023-03-28T03:33:47.495Z,4.43
2023-03-28T03:38:51.023Z,4.68
2023-03-28T03:43:56.316Z,4.68
2023-03-28T03:48:57.859Z,4.53
2023-03-28T03:53:59.435Z,5.05
2023-03-28T03:59:10.987Z,5.13
2023-03-28T04:04:14.337Z,5.25
2023-03-28T04:09:36.114Z,4.70
2023-03-28T04:14:40.009Z,5.47
2023-03-28T04:20:02.502Z,4.57
2023-03-28T04:25:08.309Z,4.68
2023-03-28T04:30:14.509Z,5.47
2023-03-28T04:35:55.509Z,4.85
2023-03-28T04:40:58.169Z,4.53
2023-03-28T04:46:31.763Z,4.57
2023-03-28T04:51:36.309Z,4.40
2023-03-28T04:56:37.846Z,4.78
2023-03-28T05:01:39.562Z,5.13
2023-03-28T05:07:07.510Z,5.30
2023-03-28T05:12:09.554Z,4.38
2023-03-28T05:17:28.617Z,4.15
2023-03-28T05:22:34.080Z,4.47
2023-03-28T05:27:37.359Z,4.38
2023-03-28T05:32:39.598Z,4.80
2023-03-28T05:37:46.906Z,4.87
2023-03-28T05:42:48.805Z,4.55
2023-03-28T05:47:54.177Z,5.53
2023-03-28T05:52:55.757Z,5.05
2023-03-28T05:57:57.396Z,5.60
2023-03-28T06:03:02.543Z,5.82
2023-03-28T06:08:07.352Z,6.55
2023-03-28T06:13:09.178Z,5.03
2023-03-28T06:18:10.883Z,4.20
2023-03-28T06:23:19.029Z,3.20
2023-03-28T06:28:20.603Z,3.55
2023-03-28T06:33:40.529Z,2.95
2023-03-28T06:38:42.061Z,2.63
2023-03-28T06:43:43.658Z,3.40
2023-03-28T06:49:05.337Z,3.28
2023-03-28T06:54:35.862Z,2.78
2023-03-28T06:59:37.546Z,2.95
2023-03-28T07:04:41.638Z,3.00
2023-03-28T07:09:43.415Z,2.60
2023-03-28T07:14:46.846Z,2.55
2023-03-28T07:19:48.698Z,2.47
2023-03-28T07:24:50.336Z,2.75
2023-03-28T07:29:52.147Z,2.60
2023-03-28T07:34:53.845Z,3.03
2023-03-28T07:40:00.302Z,2.30
2023-03-28T07:45:01.862Z,2.60
2023-03-28T07:50:03.590Z,3.00
2023-03-28T07:55:05.587Z,3.58
2023-03-28T08:00:11.717Z,2.03
2023-03-28T08:05:14.902Z,3.78
2023-03-28T08:10:16.547Z,2.28
2023-03-28T08:15:18.430Z,8.40
2023-03-28T08:20:20.769Z,3.47
2023-03-28T08:25:48.221Z,3.45
2023-03-28T08:30:53.741Z,2.25
2023-03-28T08:35:56.158Z,2.30
2023-03-28T08:41:26.688Z,2.10
2023-03-28T08:46:36.208Z,2.53
2023-03-28T08:51:42.742Z,2.27
2023-03-28T08:56:52.020Z,5.35
2023-03-28T09:01:53.594Z,2.42
2023-03-28T09:07:04.680Z,1.55
2023-03-28T09:12:42.054Z,1.70
2023-03-28T09:18:03.178Z,1.25
2023-03-28T09:23:28.680Z,1.02
2023-03-28T09:28:56.014Z,1.33
2023-03-28T09:33:58.287Z,1.20
2023-03-28T09:39:17.652Z,1.25
2023-03-28T09:44:26.066Z,0.90
2023-03-28T09:50:13.344Z,0.93
2023-03-28T09:55:21.381Z,0.73
2023-03-28T10:00:23.161Z,0.57
2023-03-28T10:05:44.660Z,0.68
2023-03-28T10:11:05.554Z,0.93
2023-03-28T10:16:11.741Z,0.63
2023-03-28T10:21:31.769Z,3.25
2023-03-28T10:26:41.731Z,1.77
2023-03-28T10:31:49.761Z,0.70
2023-03-28T10:37:02.062Z,0.80
2023-03-28T10:42:22.695Z,0.82
2023-03-28T10:47:44.426Z,0.85
2023-03-28T10:52:57.809Z,1.10
2023-03-28T10:58:15.601Z,0.80
2023-03-28T11:03:50.697Z,0.65
2023-03-28T11:09:21.705Z,0.73
2023-03-28T11:15:14.698Z,1.00
2023-03-28T11:20:31.615Z,0.70
2023-03-28T11:25:49.727Z,0.65
2023-03-28T11:31:18.782Z,1.13
2023-03-28T11:36:45.252Z,0.85
2023-03-28T11:41:49.992Z,0.70
2023-03-28T11:47:18.730Z,0.82
2023-03-28T11:52:36.966Z,0.85
2023-03-28T11:57:54.379Z,1.17
2023-03-28T12:03:26.890Z,0.90
2023-03-28T12:09:07.758Z,1.20
2023-03-28T12:14:12.671Z,1.10
2023-03-28T12:19:36.566Z,0.73
2023-03-28T12:24:54.984Z,0.80
2023-03-28T12:30:07.275Z,1.25
2023-03-28T12:35:39.078Z,0.95
2023-03-28T12:40:52.864Z,0.85
2023-03-28T12:46:02.037Z,0.90
2023-03-28T12:51:09.035Z,1.75
2023-03-28T12:56:14.067Z,1.17
2023-03-28T13:01:27.247Z,1.30
2023-03-28T13:07:21.268Z,1.10
2023-03-28T13:12:32.321Z,1.00
2023-03-28T13:17:34.044Z,1.00
2023-03-28T13:22:49.979Z,1.30
2023-03-28T13:28:10.351Z,1.00
2023-03-28T13:33:20.645Z,1.20
2023-03-28T13:38:24.864Z,0.98
2023-03-28T13:43:50.948Z,0.80
2023-03-28T13:49:00.965Z,1.20
2023-03-28T13:54:02.953Z,1.00
2023-03-28T13:59:14.333Z,0.98
2023-03-28T14:04:20.278Z,1.13
2023-03-28T14:09:30.011Z,1.35
2023-03-28T14:14:36.810Z,0.70
2023-03-28T14:19:46.259Z,1.15
2023-03-28T14:24:51.696Z,0.95
2023-03-28T14:29:58.337Z,0.83
2023-03-28T14:35:32.834Z,1.00
2023-03-28T14:40:36.907Z,0.85
2023-03-28T14:45:44.042Z,1.23
2023-03-28T14:50:48.254Z,1.65
2023-03-28T14:55:52.907Z,1.10
2023-03-28T15:01:00.588Z,1.40
2023-03-28T15:06:03.118Z,1.27
2023-03-28T15:11:29.306Z,1.10
2023-03-28T15:16:36.308Z,0.90
2023-03-28T15:21:40.187Z,1.08
2023-03-28T15:26:52.505Z,1.35
2023-03-28T15:32:01.437Z,1.45
2023-03-28T15:37:04.248Z,0.80
2023-03-28T15:42:20.773Z,0.73
2023-03-28T15:47:25.618Z,1.27
2023-03-28T15:52:27.187Z,1.02
2023-03-28T15:57:30.163Z,1.20
2023-03-28T16:02:33.108Z,0.90
2023-03-28T16:07:43.656Z,1.42
2023-03-28T16:12:46.791Z,1.50
2023-03-28T16:18:05.031Z,1.10
2023-03-28T16:23:14.694Z,1.42
2023-03-28T16:28:17.864Z,1.05
2023-03-28T16:33:19.451Z,1.65
2023-03-28T16:38:21.908Z,1.20
2023-03-28T16:43:23.457Z,1.13
2023-03-28T16:48:25.035Z,1.10
2023-03-28T16:53:26.628Z,1.30
2023-03-28T16:58:29.657Z,1.33
2023-03-28T17:03:31.547Z,1.15
2023-03-28T17:08:33.233Z,1.35
2023-03-28T17:13:40.956Z,1.52
2023-03-28T17:18:42.994Z,1.67
2023-03-28T17:23:46.475Z,1.35
2023-03-28T17:28:48.043Z,1.70
2023-03-28T17:33:49.842Z,1.67
2023-03-28T17:38:53.733Z,1.52
2023-03-28T17:43:56.781Z,1.17
2023-03-28T17:48:58.431Z,1.77
2023-03-28T17:53:59.951Z,1.45
2023-03-28T17:59:01.469Z,1.58
2023-03-28T18:04:03.290Z,1.40
2023-03-28T18:09:23.599Z,1.80
2023-03-28T18:14:25.159Z,1.30
2023-03-28T18:19:26.701Z,2.15
2023-03-28T18:24:28.852Z,1.85
2023-03-28T18:29:30.461Z,2.15
2023-03-28T18:34:32.035Z,3.13
2023-03-28T18:39:33.541Z,2.90
2023-03-28T18:44:35.407Z,1.60
2023-03-28T18:49:36.907Z,2.03
2023-03-28T18:54:38.406Z,2.33
2023-03-28T18:59:39.917Z,2.13
2023-03-28T19:04:41.468Z,1.17
2023-03-28T19:09:43.661Z,0.95
2023-03-28T19:14:45.169Z,1.08
2023-03-28T19:19:47.337Z,1.00
2023-03-28T19:24:48.881Z,1.95
2023-03-28T19:29:50.430Z,1.13
2023-03-28T19:34:52.142Z,1.67
2023-03-28T19:39:53.618Z,1.38
2023-03-28T19:44:55.125Z,1.20
2023-03-28T19:49:56.652Z,1.02
2023-03-28T19:54:58.182Z,2.20
2023-03-28T19:59:59.743Z,1.60
2023-03-28T20:05:01.245Z,1.75
2023-03-28T20:10:04.211Z,1.83
2023-03-28T20:15:07.507Z,1.55
2023-03-28T20:20:09.585Z,1.90
2023-03-28T20:25:11.084Z,2.80
2023-03-28T20:30:12.837Z,2.22
2023-03-28T20:35:14.451Z,2.20
2023-03-28T20:40:16.025Z,2.20
2023-03-28T20:45:17.980Z,2.25
2023-03-28T20:50:19.489Z,2.47
2023-03-28T20:55:21.000Z,2.90
2023-03-28T21:00:23.582Z,2.30
2023-03-28T21:05:25.725Z,2.72
2023-03-28T21:10:27.295Z,2.58
2023-03-28T21:15:28.838Z,2.83
2023-03-28T21:20:30.436Z,2.83
2023-03-28T21:25:31.932Z,2.67
2023-03-28T21:30:33.473Z,2.20
2023-03-28T21:35:35.030Z,2.78
2023-03-28T21:40:36.601Z,2.17
2023-03-28T21:45:38.164Z,3.20
2023-03-28T21:50:39.886Z,2.88
2023-03-28T21:55:41.845Z,2.40
2023-03-28T22:00:43.509Z,2.70
2023-03-28T22:05:45.155Z,2.95
2023-03-28T22:10:55.740Z,2.75
2023-03-28T22:15:57.788Z,2.92
2023-03-28T22:20:59.539Z,2.97
2023-03-28T22:26:01.288Z,2.95
2023-03-28T22:31:03.173Z,3.75
2023-03-28T22:36:05.266Z,2.47
2023-03-28T22:41:06.904Z,2.95
2023-03-28T22:46:10.112Z,2.63
2023-03-28T22:51:11.993Z,3.00
2023-03-28T22:56:13.617Z,2.92
2023-03-28T23:01:15.115Z,2.92
2023-03-28T23:06:16.626Z,2.30
2023-03-28T23:11:18.152Z,3.42
2023-03-28T23:16:19.834Z,2.83
2023-03-28T23:21:21.761Z,2.85
2023-03-28T23:26:23.487Z,2.15
2023-03-28T23:31:25.082Z,2.90
2023-03-28T23:36:26.640Z,2.65
2023-03-28T23:41:28.133Z,2.70
2023-03-28T23:46:29.672Z,3.05
2023-03-28T23:51:31.248Z,2.50
2023-03-28T23:56:32.765Z,2.90
